sensor_id;sensor_type;location;lat;lon;timestamp;pressure;altitude;pressure_sealevel;temperature;humidity
5952;BME280;3001;42.622;23.194;2023-05-19T00:00:54;91502.75;;;13.73;99.45
5952;BME280;3001;42.622;23.194;2023-05-19T00:03:21;91505.88;;;13.58;99.02
5952;BME280;3001;42.622;23.194;2023-05-19T00:05:48;91501.59;;;13.45;100.00
5952;BME280;3001;42.622;23.194;2023-05-19T00:08:18;91502.38;;;13.46;100.00
5952;BME280;3001;42.622;23.194;2023-05-19T00:10:47;91501.06;;;13.23;100.00
5952;BME280;3001;42.622;23.194;2023-05-19T00:13:14;91503.50;;;13.19;100.00
5952;BME280;3001;42.622;23.194;2023-05-19T00:15:41;91500.88;;;13.36;100.00
5952;BME280;3001;42.622;23.194;2023-05-19T00:18:08;91488.91;;;13.35;100.00
5952;BME280;3001;42.622;23.194;2023-05-19T00:20:38;91495.84;;;13.23;100.00
5952;BME280;3001;42.622;23.194;2023-05-19T00:23:04;91504.88;;;13.25;100.00
5952;BME280;3001;42.622;23.194;2023-05-19T00:25:31;91493.84;;;13.28;100.00
5952;BME280;3001;42.622;23.194;2023-05-19T00:27:59;91489.38;;;13.20;100.00
5952;BME280;3001;42.622;23.194;2023-05-19T00:30:26;91487.59;;;13.12;100.00
5952;BME280;3001;42.622;23.194;2023-05-19T00:32:53;91490.63;;;13.23;100.00
5952;BME280;3001;42.622;23.194;2023-05-19T00:35:20;91489.84;;;13.22;100.00
5952;BME280;3001;42.622;23.194;2023-05-19T00:37:47;91487.56;;;13.21;100.00
5952;BME280;3001;42.622;23.194;2023-05-19T00:40:13;91480.75;;;13.37;100.00
5952;BME280;3001;42.622;23.194;2023-05-19T00:42:41;91481.97;;;13.39;100.00
5952;BME280;3001;42.622;23.194;2023-05-19T00:45:09;91486.47;;;13.68;98.35
5952;BME280;3001;42.622;23.194;2023-05-19T00:47:36;91480.38;;;13.64;98.31
5952;BME280;3001;42.622;23.194;2023-05-19T00:50:03;91487.56;;;13.67;98.45
5952;BME280;3001;42.622;23.194;2023-05-19T00:52:29;91477.56;;;13.69;98.40
5952;BME280;3001;42.622;23.194;2023-05-19T00:54:56;91473.03;;;13.49;98.66
5952;BME280;3001;42.622;23.194;2023-05-19T00:57:23;91466.81;;;13.24;100.00
5952;BME280;3001;42.622;23.194;2023-05-19T00:59:51;91468.19;;;13.39;100.00
5952;BME280;3001;42.622;23.194;2023-05-19T01:02:19;91469.97;;;13.47;99.56
5952;BME280;3001;42.622;23.194;2023-05-19T01:04:46;91468.31;;;13.42;99.61
5952;BME280;3001;42.622;23.194;2023-05-19T01:07:13;91467.09;;;13.40;98.87
5952;BME280;3001;42.622;23.194;2023-05-19T01:09:40;91462.19;;;13.38;98.40
5952;BME280;3001;42.622;23.194;2023-05-19T01:12:07;91460.94;;;13.44;98.22
5952;BME280;3001;42.622;23.194;2023-05-19T01:14:34;91468.53;;;13.20;98.91
5952;BME280;3001;42.622;23.194;2023-05-19T01:17:05;91464.72;;;13.18;98.42
5952;BME280;3001;42.622;23.194;2023-05-19T01:19:51;91466.53;;;13.26;97.08
5952;BME280;3001;42.622;23.194;2023-05-19T01:22:44;91466.25;;;13.10;97.48
5952;BME280;3001;42.622;23.194;2023-05-19T01:25:36;91466.56;;;13.00;97.38
5952;BME280;3001;42.622;23.194;2023-05-19T01:31:03;91477.91;;;13.04;97.24
5952;BME280;3001;42.622;23.194;2023-05-19T01:33:32;91474.41;;;13.00;96.91
5952;BME280;3001;42.622;23.194;2023-05-19T01:36:02;91470.56;;;12.89;97.21
5952;BME280;3001;42.622;23.194;2023-05-19T01:38:29;91476.38;;;13.03;97.20
5952;BME280;3001;42.622;23.194;2023-05-19T01:40:59;91469.78;;;12.89;97.48
5952;BME280;3001;42.622;23.194;2023-05-19T01:43:29;91479.16;;;12.98;97.10
5952;BME280;3001;42.622;23.194;2023-05-19T01:45:57;91469.66;;;12.94;97.69
5952;BME280;3001;42.622;23.194;2023-05-19T01:48:25;91469.97;;;12.75;97.97
5952;BME280;3001;42.622;23.194;2023-05-19T01:50:52;91462.44;;;12.65;98.06
5952;BME280;3001;42.622;23.194;2023-05-19T01:53:21;91471.19;;;12.52;99.01
5952;BME280;3001;42.622;23.194;2023-05-19T01:55:50;91470.28;;;12.57;98.96
5952;BME280;3001;42.622;23.194;2023-05-19T01:58:21;91471.94;;;12.53;99.51
5952;BME280;3001;42.622;23.194;2023-05-19T02:00:53;91479.03;;;12.69;97.75
5952;BME280;3001;42.622;23.194;2023-05-19T02:03:41;91477.16;;;12.61;98.40
5952;BME280;3001;42.622;23.194;2023-05-19T02:06:23;91468.91;;;12.51;98.77
5952;BME280;3001;42.622;23.194;2023-05-19T02:08:57;91484.53;;;12.68;97.84
5952;BME280;3001;42.622;23.194;2023-05-19T02:11:30;91487.47;;;12.66;97.28
5952;BME280;3001;42.622;23.194;2023-05-19T02:14:03;91491.09;;;12.74;97.34
5952;BME280;3001;42.622;23.194;2023-05-19T02:16:34;91483.28;;;12.74;97.30
5952;BME280;3001;42.622;23.194;2023-05-19T02:19:04;91477.78;;;12.75;97.84
5952;BME280;3001;42.622;23.194;2023-05-19T02:21:30;91479.94;;;12.82;97.72
5952;BME280;3001;42.622;23.194;2023-05-19T02:23:57;91487.13;;;12.68;98.06
5952;BME280;3001;42.622;23.194;2023-05-19T02:26:24;91486.06;;;12.60;98.76
5952;BME280;3001;42.622;23.194;2023-05-19T02:28:51;91485.75;;;12.53;99.09
5952;BME280;3001;42.622;23.194;2023-05-19T02:31:17;91488.81;;;12.72;99.17
5952;BME280;3001;42.622;23.194;2023-05-19T02:33:44;91492.63;;;12.92;98.83
5952;BME280;3001;42.622;23.194;2023-05-19T02:36:12;91486.50;;;12.88;99.85
5952;BME280;3001;42.622;23.194;2023-05-19T02:38:39;91482.53;;;12.90;100.00
5952;BME280;3001;42.622;23.194;2023-05-19T02:41:06;91491.28;;;13.03;100.00
5952;BME280;3001;42.622;23.194;2023-05-19T02:43:32;91490.81;;;13.09;99.37
5952;BME280;3001;42.622;23.194;2023-05-19T02:45:59;91486.34;;;13.01;99.23
5952;BME280;3001;42.622;23.194;2023-05-19T02:48:26;91491.38;;;13.23;98.92
5952;BME280;3001;42.622;23.194;2023-05-19T02:50:53;91492.34;;;12.76;99.87
5952;BME280;3001;42.622;23.194;2023-05-19T02:53:21;91484.84;;;12.58;100.00
5952;BME280;3001;42.622;23.194;2023-05-19T02:55:47;91487.47;;;12.58;100.00
5952;BME280;3001;42.622;23.194;2023-05-19T02:58:14;91487.75;;;12.56;100.00
5952;BME280;3001;42.622;23.194;2023-05-19T03:00:41;91491.88;;;12.57;100.00
5952;BME280;3001;42.622;23.194;2023-05-19T03:03:09;91487.91;;;12.51;100.00
5952;BME280;3001;42.622;23.194;2023-05-19T03:05:36;91484.69;;;12.54;100.00
5952;BME280;3001;42.622;23.194;2023-05-19T03:08:03;91491.09;;;12.65;99.46
5952;BME280;3001;42.622;23.194;2023-05-19T03:10:31;91498.00;;;12.53;99.74
5952;BME280;3001;42.622;23.194;2023-05-19T03:12:58;91496.47;;;12.60;99.78
5952;BME280;3001;42.622;23.194;2023-05-19T03:15:25;91494.19;;;12.50;100.00
5952;BME280;3001;42.622;23.194;2023-05-19T03:17:51;91496.81;;;12.50;100.00
5952;BME280;3001;42.622;23.194;2023-05-19T03:20:18;91495.28;;;12.66;99.24
5952;BME280;3001;42.622;23.194;2023-05-19T03:22:45;91489.13;;;12.45;100.00
5952;BME280;3001;42.622;23.194;2023-05-19T03:25:11;91494.94;;;12.42;100.00
5952;BME280;3001;42.622;23.194;2023-05-19T03:27:40;91497.09;;;12.49;100.00
5952;BME280;3001;42.622;23.194;2023-05-19T03:30:07;91491.25;;;12.35;100.00
5952;BME280;3001;42.622;23.194;2023-05-19T03:32:34;91499.38;;;12.33;100.00
5952;BME280;3001;42.622;23.194;2023-05-19T03:35:02;91499.69;;;12.49;100.00
5952;BME280;3001;42.622;23.194;2023-05-19T03:37:28;91498.19;;;12.56;100.00
5952;BME280;3001;42.622;23.194;2023-05-19T03:39:55;91500.78;;;12.48;100.00
5952;BME280;3001;42.622;23.194;2023-05-19T03:42:22;91494.78;;;12.30;100.00
5952;BME280;3001;42.622;23.194;2023-05-19T03:44:50;91503.56;;;12.60;100.00
5952;BME280;3001;42.622;23.194;2023-05-19T03:47:17;91498.47;;;12.55;100.00
5952;BME280;3001;42.622;23.194;2023-05-19T03:49:44;91505.06;;;12.52;100.00
5952;BME280;3001;42.622;23.194;2023-05-19T03:52:10;91507.22;;;12.50;100.00
5952;BME280;3001;42.622;23.194;2023-05-19T03:54:37;91500.94;;;12.51;100.00
5952;BME280;3001;42.622;23.194;2023-05-19T03:57:07;91499.72;;;12.57;100.00
5952;BME280;3001;42.622;23.194;2023-05-19T03:59:35;91505.22;;;12.64;100.00
5952;BME280;3001;42.622;23.194;2023-05-19T04:02:04;91500.31;;;12.63;100.00
5952;BME280;3001;42.622;23.194;2023-05-19T04:04:30;91494.97;;;12.68;100.00
5952;BME280;3001;42.622;23.194;2023-05-19T04:06:57;91505.84;;;12.70;100.00
5952;BME280;3001;42.622;23.194;2023-05-19T04:09:24;91502.78;;;12.85;100.00
5952;BME280;3001;42.622;23.194;2023-05-19T04:11:50;91497.75;;;12.97;100.00
5952;BME280;3001;42.622;23.194;2023-05-19T04:14:17;91508.00;;;13.10;100.00
5952;BME280;3001;42.622;23.194;2023-05-19T04:16:44;91501.72;;;13.03;100.00
5952;BME280;3001;42.622;23.194;2023-05-19T04:19:12;91505.03;;;13.20;100.00
5952;BME280;3001;42.622;23.194;2023-05-19T04:21:39;91510.41;;;13.32;100.00
5952;BME280;3001;42.622;23.194;2023-05-19T04:24:06;91506.50;;;13.55;100.00
5952;BME280;3001;42.622;23.194;2023-05-19T04:26:33;91508.66;;;13.53;100.00
5952;BME280;3001;42.622;23.194;2023-05-19T04:29:00;91518.00;;;13.63;100.00
5952;BME280;3001;42.622;23.194;2023-05-19T04:31:28;91508.13;;;13.68;100.00
5952;BME280;3001;42.622;23.194;2023-05-19T04:33:55;91520.25;;;13.73;100.00
5952;BME280;3001;42.622;23.194;2023-05-19T04:36:23;91520.22;;;13.81;100.00
5952;BME280;3001;42.622;23.194;2023-05-19T04:38:50;91518.47;;;13.93;100.00
5952;BME280;3001;42.622;23.194;2023-05-19T04:41:19;91510.38;;;13.86;100.00
5952;BME280;3001;42.622;23.194;2023-05-19T04:43:46;91520.69;;;14.20;100.00
5952;BME280;3001;42.622;23.194;2023-05-19T04:46:14;91524.00;;;14.29;100.00
5952;BME280;3001;42.622;23.194;2023-05-19T04:48:41;91526.31;;;14.31;100.00
5952;BME280;3001;42.622;23.194;2023-05-19T04:51:08;91532.91;;;14.28;100.00
5952;BME280;3001;42.622;23.194;2023-05-19T04:53:40;91527.09;;;14.52;100.00
5952;BME280;3001;42.622;23.194;2023-05-19T04:56:07;91532.19;;;14.69;100.00
5952;BME280;3001;42.622;23.194;2023-05-19T04:58:33;91529.38;;;14.53;100.00
5952;BME280;3001;42.622;23.194;2023-05-19T05:01:02;91529.47;;;14.36;100.00
5952;BME280;3001;42.622;23.194;2023-05-19T05:03:29;91536.13;;;14.34;100.00
5952;BME280;3001;42.622;23.194;2023-05-19T05:05:57;91533.63;;;14.37;100.00
5952;BME280;3001;42.622;23.194;2023-05-19T05:08:24;91535.03;;;14.35;100.00
5952;BME280;3001;42.622;23.194;2023-05-19T05:10:53;91537.28;;;14.45;100.00
5952;BME280;3001;42.622;23.194;2023-05-19T05:13:21;91534.31;;;14.26;100.00
5952;BME280;3001;42.622;23.194;2023-05-19T05:15:48;91540.06;;;14.40;99.60
5952;BME280;3001;42.622;23.194;2023-05-19T05:18:16;91538.06;;;14.45;99.60
5952;BME280;3001;42.622;23.194;2023-05-19T05:20:44;91540.38;;;14.38;100.00
5952;BME280;3001;42.622;23.194;2023-05-19T05:23:13;91543.13;;;14.42;99.96
5952;BME280;3001;42.622;23.194;2023-05-19T05:25:41;91541.63;;;14.41;99.86
5952;BME280;3001;42.622;23.194;2023-05-19T05:28:10;91539.25;;;14.48;99.91
5952;BME280;3001;42.622;23.194;2023-05-19T05:30:37;91539.00;;;14.41;99.87
5952;BME280;3001;42.622;23.194;2023-05-19T05:33:04;91536.97;;;14.46;98.97
5952;BME280;3001;42.622;23.194;2023-05-19T05:35:30;91533.56;;;14.46;99.48
5952;BME280;3001;42.622;23.194;2023-05-19T05:37:57;91537.66;;;14.35;100.00
5952;BME280;3001;42.622;23.194;2023-05-19T05:40:24;91541.81;;;14.36;100.00
5952;BME280;3001;42.622;23.194;2023-05-19T05:42:50;91546.13;;;14.32;100.00
5952;BME280;3001;42.622;23.194;2023-05-19T05:45:21;91549.09;;;14.22;100.00
5952;BME280;3001;42.622;23.194;2023-05-19T05:47:48;91548.28;;;14.59;100.00
5952;BME280;3001;42.622;23.194;2023-05-19T05:50:15;91545.84;;;14.54;100.00
5952;BME280;3001;42.622;23.194;2023-05-19T05:52:45;91549.78;;;14.60;100.00
5952;BME280;3001;42.622;23.194;2023-05-19T05:55:13;91555.28;;;14.67;100.00
5952;BME280;3001;42.622;23.194;2023-05-19T05:57:40;91549.94;;;14.63;100.00
5952;BME280;3001;42.622;23.194;2023-05-19T06:00:07;91554.13;;;14.56;100.00
5952;BME280;3001;42.622;23.194;2023-05-19T06:02:41;91554.13;;;14.56;100.00
5952;BME280;3001;42.622;23.194;2023-05-19T06:05:08;91556.19;;;14.71;100.00
5952;BME280;3001;42.622;23.194;2023-05-19T06:07:37;91556.19;;;14.71;100.00
5952;BME280;3001;42.622;23.194;2023-05-19T06:10:04;91561.69;;;14.78;100.00
5952;BME280;3001;42.622;23.194;2023-05-19T06:12:31;91566.34;;;14.93;100.00
5952;BME280;3001;42.622;23.194;2023-05-19T06:14:58;91567.16;;;14.85;100.00
5952;BME280;3001;42.622;23.194;2023-05-19T06:17:25;91568.38;;;14.87;100.00
5952;BME280;3001;42.622;23.194;2023-05-19T06:19:53;91566.50;;;14.88;100.00
5952;BME280;3001;42.622;23.194;2023-05-19T06:22:19;91565.94;;;15.03;100.00
5952;BME280;3001;42.622;23.194;2023-05-19T06:24:46;91567.63;;;15.07;100.00
5952;BME280;3001;42.622;23.194;2023-05-19T06:27:13;91559.63;;;15.24;100.00
5952;BME280;3001;42.622;23.194;2023-05-19T06:29:39;91561.03;;;15.22;100.00
5952;BME280;3001;42.622;23.194;2023-05-19T06:32:06;91560.13;;;15.38;100.00
5952;BME280;3001;42.622;23.194;2023-05-19T06:34:33;91565.44;;;15.30;100.00
5952;BME280;3001;42.622;23.194;2023-05-19T06:37:01;91563.25;;;15.52;100.00
5952;BME280;3001;42.622;23.194;2023-05-19T06:39:27;91573.28;;;15.62;100.00
5952;BME280;3001;42.622;23.194;2023-05-19T06:41:54;91570.44;;;15.55;100.00
5952;BME280;3001;42.622;23.194;2023-05-19T06:44:21;91567.81;;;15.55;100.00
5952;BME280;3001;42.622;23.194;2023-05-19T06:46:47;91563.03;;;15.57;100.00
5952;BME280;3001;42.622;23.194;2023-05-19T06:49:14;91566.00;;;15.67;100.00
5952;BME280;3001;42.622;23.194;2023-05-19T06:51:41;91572.25;;;15.75;100.00
5952;BME280;3001;42.622;23.194;2023-05-19T06:54:09;91575.66;;;15.87;100.00
5952;BME280;3001;42.622;23.194;2023-05-19T06:56:37;91579.72;;;15.85;100.00
5952;BME280;3001;42.622;23.194;2023-05-19T06:59:03;91580.97;;;15.79;100.00
5952;BME280;3001;42.622;23.194;2023-05-19T07:01:30;91580.38;;;15.94;100.00
5952;BME280;3001;42.622;23.194;2023-05-19T07:03:57;91583.25;;;16.13;100.00
5952;BME280;3001;42.622;23.194;2023-05-19T07:06:23;91583.13;;;16.21;100.00
5952;BME280;3001;42.622;23.194;2023-05-19T07:08:50;91582.69;;;16.31;100.00
5952;BME280;3001;42.622;23.194;2023-05-19T07:11:18;91580.97;;;16.47;100.00
5952;BME280;3001;42.622;23.194;2023-05-19T07:13:46;91587.31;;;16.70;98.84
5952;BME280;3001;42.622;23.194;2023-05-19T07:16:12;91588.84;;;16.83;99.30
5952;BME280;3001;42.622;23.194;2023-05-19T07:18:39;91594.50;;;16.97;98.58
5952;BME280;3001;42.622;23.194;2023-05-19T07:21:05;91592.09;;;17.04;98.04
5952;BME280;3001;42.622;23.194;2023-05-19T07:23:32;91590.75;;;17.10;97.75
5952;BME280;3001;42.622;23.194;2023-05-19T07:25:59;91595.91;;;17.07;97.30
5952;BME280;3001;42.622;23.194;2023-05-19T07:28:27;91599.28;;;17.19;96.61
5952;BME280;3001;42.622;23.194;2023-05-19T07:30:53;91600.88;;;17.24;96.60
5952;BME280;3001;42.622;23.194;2023-05-19T07:33:20;91596.78;;;17.50;95.71
5952;BME280;3001;42.622;23.194;2023-05-19T07:35:47;91591.78;;;17.45;96.39
5952;BME280;3001;42.622;23.194;2023-05-19T07:38:14;91590.44;;;17.51;96.07
5952;BME280;3001;42.622;23.194;2023-05-19T07:40:40;91592.31;;;17.78;94.77
5952;BME280;3001;42.622;23.194;2023-05-19T07:43:07;91598.69;;;17.92;94.73
5952;BME280;3001;42.622;23.194;2023-05-19T07:45:37;91597.16;;;17.91;93.47
5952;BME280;3001;42.622;23.194;2023-05-19T07:48:03;91590.56;;;18.13;91.09
5952;BME280;3001;42.622;23.194;2023-05-19T07:50:31;91599.38;;;18.05;91.63
5952;BME280;3001;42.622;23.194;2023-05-19T07:52:57;91601.63;;;18.34;92.01
5952;BME280;3001;42.622;23.194;2023-05-19T07:55:24;91600.84;;;18.18;92.34
5952;BME280;3001;42.622;23.194;2023-05-19T07:57:51;91599.13;;;18.10;93.39
5952;BME280;3001;42.622;23.194;2023-05-19T08:00:18;91604.38;;;18.37;91.61
5952;BME280;3001;42.622;23.194;2023-05-19T08:02:46;91609.78;;;18.44;91.08
5952;BME280;3001;42.622;23.194;2023-05-19T08:05:13;91610.56;;;18.45;89.28
5952;BME280;3001;42.622;23.194;2023-05-19T08:07:39;91610.13;;;18.89;90.65
5952;BME280;3001;42.622;23.194;2023-05-19T08:10:07;91618.53;;;18.64;86.87
5952;BME280;3001;42.622;23.194;2023-05-19T08:12:33;91609.88;;;18.63;90.06
5952;BME280;3001;42.622;23.194;2023-05-19T08:15:00;91611.41;;;18.80;90.17
5952;BME280;3001;42.622;23.194;2023-05-19T08:17:27;91622.47;;;19.04;88.09
5952;BME280;3001;42.622;23.194;2023-05-19T08:19:55;91614.13;;;19.18;88.49
5952;BME280;3001;42.622;23.194;2023-05-19T08:22:22;91617.31;;;19.42;83.10
5952;BME280;3001;42.622;23.194;2023-05-19T08:24:49;91622.94;;;19.40;85.56
5952;BME280;3001;42.622;23.194;2023-05-19T08:27:16;91615.47;;;19.61;87.12
5952;BME280;3001;42.622;23.194;2023-05-19T08:29:42;91616.50;;;19.95;83.96
5952;BME280;3001;42.622;23.194;2023-05-19T08:32:09;91610.03;;;19.73;85.14
5952;BME280;3001;42.622;23.194;2023-05-19T08:34:36;91627.44;;;19.97;84.41
5952;BME280;3001;42.622;23.194;2023-05-19T08:37:04;91621.28;;;20.08;83.93
5952;BME280;3001;42.622;23.194;2023-05-19T08:39:32;91622.00;;;20.05;85.12
5952;BME280;3001;42.622;23.194;2023-05-19T08:41:59;91631.03;;;20.27;83.50
5952;BME280;3001;42.622;23.194;2023-05-19T08:44:26;91624.19;;;20.45;83.58
5952;BME280;3001;42.622;23.194;2023-05-19T08:46:55;91622.75;;;20.47;83.61
5952;BME280;3001;42.622;23.194;2023-05-19T08:49:26;91631.88;;;20.53;80.01
5952;BME280;3001;42.622;23.194;2023-05-19T08:51:58;91624.13;;;20.64;83.34
5952;BME280;3001;42.622;23.194;2023-05-19T08:54:31;91630.91;;;20.84;82.48
5952;BME280;3001;42.622;23.194;2023-05-19T08:56:59;91633.66;;;20.91;80.07
5952;BME280;3001;42.622;23.194;2023-05-19T08:59:27;91630.78;;;20.77;81.12
5952;BME280;3001;42.622;23.194;2023-05-19T09:01:54;91637.09;;;20.72;77.73
5952;BME280;3001;42.622;23.194;2023-05-19T09:04:21;91628.19;;;20.58;79.49
5952;BME280;3001;42.622;23.194;2023-05-19T09:06:48;91613.75;;;20.52;81.03
5952;BME280;3001;42.622;23.194;2023-05-19T09:09:15;91623.22;;;20.53;80.56
5952;BME280;3001;42.622;23.194;2023-05-19T09:11:45;91626.19;;;20.51;80.41
5952;BME280;3001;42.622;23.194;2023-05-19T09:14:12;91630.88;;;20.39;81.38
5952;BME280;3001;42.622;23.194;2023-05-19T09:16:39;91623.72;;;20.39;81.55
5952;BME280;3001;42.622;23.194;2023-05-19T09:19:12;91632.34;;;20.59;81.38
5952;BME280;3001;42.622;23.194;2023-05-19T09:21:40;91633.22;;;20.85;79.05
5952;BME280;3001;42.622;23.194;2023-05-19T09:24:08;91634.19;;;21.25;79.18
5952;BME280;3001;42.622;23.194;2023-05-19T09:26:35;91628.69;;;21.63;75.67
5952;BME280;3001;42.622;23.194;2023-05-19T09:29:11;91614.50;;;20.30;84.01
5952;BME280;3001;42.622;23.194;2023-05-19T09:31:38;91616.34;;;20.48;85.11
5952;BME280;3001;42.622;23.194;2023-05-19T09:34:10;91614.66;;;20.37;83.05
5952;BME280;3001;42.622;23.194;2023-05-19T09:36:39;91619.56;;;20.61;79.15
5952;BME280;3001;42.622;23.194;2023-05-19T09:39:11;91614.47;;;20.94;81.69
5952;BME280;3001;42.622;23.194;2023-05-19T09:41:38;91617.72;;;21.09;79.96
5952;BME280;3001;42.622;23.194;2023-05-19T09:44:05;91617.81;;;20.91;79.27
5952;BME280;3001;42.622;23.194;2023-05-19T09:46:33;91619.03;;;20.74;77.59
5952;BME280;3001;42.622;23.194;2023-05-19T09:49:07;91618.72;;;20.79;83.32
5952;BME280;3001;42.622;23.194;2023-05-19T09:51:34;91612.19;;;20.92;84.31
5952;BME280;3001;42.622;23.194;2023-05-19T09:54:02;91621.84;;;21.33;80.14
5952;BME280;3001;42.622;23.194;2023-05-19T09:56:30;91613.19;;;21.36;82.15
5952;BME280;3001;42.622;23.194;2023-05-19T09:59:00;91607.31;;;21.49;81.54
5952;BME280;3001;42.622;23.194;2023-05-19T10:01:27;91609.31;;;21.85;78.05
5952;BME280;3001;42.622;23.194;2023-05-19T10:03:56;91613.25;;;21.98;77.27
5952;BME280;3001;42.622;23.194;2023-05-19T10:06:23;91612.25;;;22.13;76.33
5952;BME280;3001;42.622;23.194;2023-05-19T10:08:50;91614.78;;;22.36;79.01
5952;BME280;3001;42.622;23.194;2023-05-19T10:11:19;91628.06;;;22.06;70.68
5952;BME280;3001;42.622;23.194;2023-05-19T10:13:49;91628.41;;;22.05;72.34
5952;BME280;3001;42.622;23.194;2023-05-19T10:16:17;91621.72;;;22.14;72.31
5952;BME280;3001;42.622;23.194;2023-05-19T10:18:43;91628.19;;;22.17;71.47
5952;BME280;3001;42.622;23.194;2023-05-19T10:21:12;91614.41;;;22.01;71.15
5952;BME280;3001;42.622;23.194;2023-05-19T10:23:39;91607.13;;;21.94;72.29
5952;BME280;3001;42.622;23.194;2023-05-19T10:26:07;91605.72;;;22.04;75.38
5952;BME280;3001;42.622;23.194;2023-05-19T10:28:37;91615.78;;;22.24;71.25
5952;BME280;3001;42.622;23.194;2023-05-19T10:31:08;91615.25;;;22.41;71.53
5952;BME280;3001;42.622;23.194;2023-05-19T10:33:43;91611.91;;;22.48;72.12
5952;BME280;3001;42.622;23.194;2023-05-19T10:36:31;91614.66;;;22.58;70.67
5952;BME280;3001;42.622;23.194;2023-05-19T10:39:06;91611.75;;;22.74;71.64
5952;BME280;3001;42.622;23.194;2023-05-19T10:41:44;91607.78;;;23.00;72.75
5952;BME280;3001;42.622;23.194;2023-05-19T10:44:19;91604.31;;;22.93;71.09
5952;BME280;3001;42.622;23.194;2023-05-19T10:46:48;91619.31;;;22.72;68.63
5952;BME280;3001;42.622;23.194;2023-05-19T10:49:19;91609.75;;;22.64;69.71
5952;BME280;3001;42.622;23.194;2023-05-19T10:51:48;91604.53;;;22.71;69.63
5952;BME280;3001;42.622;23.194;2023-05-19T10:54:15;91603.28;;;23.04;67.65
5952;BME280;3001;42.622;23.194;2023-05-19T10:56:42;91598.38;;;23.06;69.52
5952;BME280;3001;42.622;23.194;2023-05-19T10:59:29;91612.84;;;23.16;66.26
5952;BME280;3001;42.622;23.194;2023-05-19T11:01:56;91605.56;;;23.63;61.02
5952;BME280;3001;42.622;23.194;2023-05-19T11:04:38;91600.66;;;23.65;64.48
5952;BME280;3001;42.622;23.194;2023-05-19T11:07:07;91616.13;;;23.49;63.26
5952;BME280;3001;42.622;23.194;2023-05-19T11:09:39;91597.50;;;23.42;64.41
5952;BME280;3001;42.622;23.194;2023-05-19T11:12:07;91591.88;;;23.51;63.35
5952;BME280;3001;42.622;23.194;2023-05-19T11:14:34;91591.94;;;23.65;64.68
5952;BME280;3001;42.622;23.194;2023-05-19T11:17:01;91602.66;;;23.82;57.91
5952;BME280;3001;42.622;23.194;2023-05-19T11:19:31;91601.59;;;24.01;62.91
5952;BME280;3001;42.622;23.194;2023-05-19T11:22:08;91595.03;;;23.77;63.29
5952;BME280;3001;42.622;23.194;2023-05-19T11:24:36;91601.91;;;23.82;63.37
5952;BME280;3001;42.622;23.194;2023-05-19T11:27:21;91599.84;;;23.58;62.67
5952;BME280;3001;42.622;23.194;2023-05-19T11:29:49;91601.84;;;23.71;64.22
5952;BME280;3001;42.622;23.194;2023-05-19T11:32:19;91588.31;;;23.90;64.26
5952;BME280;3001;42.622;23.194;2023-05-19T11:34:47;91591.38;;;24.06;65.78
5952;BME280;3001;42.622;23.194;2023-05-19T11:37:15;91591.06;;;24.36;63.12
5952;BME280;3001;42.622;23.194;2023-05-19T11:39:44;91585.41;;;24.41;53.52
5952;BME280;3001;42.622;23.194;2023-05-19T11:42:11;91569.41;;;24.23;56.63
5952;BME280;3001;42.622;23.194;2023-05-19T11:44:38;91562.97;;;24.17;61.28
5952;BME280;3001;42.622;23.194;2023-05-19T11:47:05;91571.72;;;24.25;58.36
5952;BME280;3001;42.622;23.194;2023-05-19T11:49:32;91567.47;;;24.06;54.41
5952;BME280;3001;42.622;23.194;2023-05-19T11:51:59;91561.03;;;24.00;60.38
5952;BME280;3001;42.622;23.194;2023-05-19T11:54:31;91563.69;;;24.07;58.88
5952;BME280;3001;42.622;23.194;2023-05-19T11:57:00;91555.72;;;24.07;59.89
5952;BME280;3001;42.622;23.194;2023-05-19T11:59:31;91565.56;;;23.96;61.90
5952;BME280;3001;42.622;23.194;2023-05-19T12:02:00;91557.97;;;23.91;61.84
5952;BME280;3001;42.622;23.194;2023-05-19T12:04:27;91567.06;;;23.90;60.35
5952;BME280;3001;42.622;23.194;2023-05-19T12:06:54;91574.94;;;23.76;59.25
5952;BME280;3001;42.622;23.194;2023-05-19T12:09:21;91579.72;;;23.46;58.08
5952;BME280;3001;42.622;23.194;2023-05-19T12:11:50;91592.28;;;22.99;62.31
5952;BME280;3001;42.622;23.194;2023-05-19T12:14:17;91603.03;;;22.70;66.44
5952;BME280;3001;42.622;23.194;2023-05-19T12:16:44;91604.66;;;22.45;70.86
5952;BME280;3001;42.622;23.194;2023-05-19T12:19:10;91608.03;;;22.38;72.77
5952;BME280;3001;42.622;23.194;2023-05-19T12:21:37;91608.53;;;21.85;76.70
5952;BME280;3001;42.622;23.194;2023-05-19T12:24:05;91614.75;;;21.66;77.25
5952;BME280;3001;42.622;23.194;2023-05-19T12:26:32;91613.56;;;21.34;75.63
5952;BME280;3001;42.622;23.194;2023-05-19T12:29:03;91602.16;;;21.05;76.94
5952;BME280;3001;42.622;23.194;2023-05-19T12:31:31;91616.50;;;20.81;78.71
5952;BME280;3001;42.622;23.194;2023-05-19T12:33:58;91621.94;;;20.43;79.97
5952;BME280;3001;42.622;23.194;2023-05-19T12:36:26;91619.56;;;20.38;79.55
5952;BME280;3001;42.622;23.194;2023-05-19T12:38:53;91627.50;;;20.19;80.64
5952;BME280;3001;42.622;23.194;2023-05-19T12:41:20;91612.06;;;19.61;81.04
5952;BME280;3001;42.622;23.194;2023-05-19T12:43:47;91627.63;;;19.31;83.06
5952;BME280;3001;42.622;23.194;2023-05-19T12:46:17;91624.16;;;19.12;82.22
5952;BME280;3001;42.622;23.194;2023-05-19T12:48:45;91623.75;;;18.95;84.14
5952;BME280;3001;42.622;23.194;2023-05-19T12:51:15;91619.97;;;18.92;83.52
5952;BME280;3001;42.622;23.194;2023-05-19T12:53:42;91613.53;;;18.59;83.20
5952;BME280;3001;42.622;23.194;2023-05-19T12:56:12;91613.44;;;18.55;85.80
5952;BME280;3001;42.622;23.194;2023-05-19T12:58:40;91615.66;;;18.53;85.09
5952;BME280;3001;42.622;23.194;2023-05-19T13:01:11;91609.38;;;18.27;85.93
5952;BME280;3001;42.622;23.194;2023-05-19T13:03:42;91603.91;;;18.20;87.74
5952;BME280;3001;42.622;23.194;2023-05-19T13:06:09;91591.34;;;18.13;89.59
5952;BME280;3001;42.622;23.194;2023-05-19T13:08:36;91582.94;;;17.92;91.50
5952;BME280;3001;42.622;23.194;2023-05-19T13:11:03;91585.34;;;17.85;90.72
5952;BME280;3001;42.622;23.194;2023-05-19T13:13:30;91585.81;;;18.03;90.90
5952;BME280;3001;42.622;23.194;2023-05-19T13:15:57;91582.09;;;18.04;91.35